Time;durP1;ratioP1;P1;durP2;ratioP2;P2;SDS_P1;SDS_P2;PMS_P1;PMS_P2;Temp;Humidity;BMP_temperature;BMP_pressure;BME280_temperature;BME280_humidity;BME280_pressure;Samples;Min_cycle;Max_cycle;Signal;HPM_P1;HPM_P2
2023/03/22 00:01:48;;;;;;;8.55;1.08;;;12.00;99.90;;;;;;4906546;29;20035;-83
2023/03/22 00:04:13;;;;;;;6.18;1.00;;;12.10;99.90;;;;;;4916797;29;20671;-82
2023/03/22 00:06:39;;;;;;;6.72;0.93;;;12.00;99.90;;;;;;4912171;29;20029;-81
2023/03/22 00:09:05;;;;;;;4.03;0.88;;;12.10;99.90;;;;;;4913225;29;20032;-83
2023/03/22 00:11:30;;;;;;;6.90;1.00;;;12.00;99.90;;;;;;4909914;29;20422;-83
2023/03/22 00:13:57;;;;;;;6.53;1.15;;;12.10;99.90;;;;;;4909050;29;20032;-81
2023/03/22 00:16:23;;;;;;;6.45;0.75;;;12.10;99.90;;;;;;4900961;29;20118;-82
2023/03/22 00:18:49;;;;;;;7.50;1.05;;;12.10;99.90;;;;;;4905557;29;20020;-82
2023/03/22 00:21:16;;;;;;;6.97;1.17;;;12.10;99.90;;;;;;4914263;29;20028;-83
2023/03/22 00:23:43;;;;;;;3.97;0.73;;;12.10;99.90;;;;;;4907108;29;20068;-81
2023/03/22 00:26:10;;;;;;;4.35;1.00;;;12.10;99.90;;;;;;4901453;29;20497;-82
2023/03/22 00:28:36;;;;;;;6.78;1.00;;;12.10;99.90;;;;;;4902119;29;20100;-80
2023/03/22 00:31:03;;;;;;;6.88;0.80;;;12.10;99.90;;;;;;4900554;29;20450;-80
2023/03/22 00:33:30;;;;;;;6.95;0.82;;;12.10;99.90;;;;;;4913868;29;20047;-81
2023/03/22 00:36:05;;;;;;;8.52;0.90;;;12.10;99.90;;;;;;4902174;29;20108;-80
2023/03/22 00:38:38;;;;;;;8.15;1.00;;;12.10;99.90;;;;;;4916901;29;20510;-82
2023/03/22 00:41:12;;;;;;;7.45;1.27;;;12.10;99.90;;;;;;4914876;29;20024;-82
2023/03/22 00:43:38;;;;;;;7.30;1.02;;;12.10;99.90;;;;;;4915510;29;20032;-82
2023/03/22 00:46:04;;;;;;;3.88;0.70;;;12.10;99.90;;;;;;4919316;29;20020;-82
2023/03/22 00:48:30;;;;;;;5.18;1.05;;;12.10;99.90;;;;;;4916312;29;20100;-81
2023/03/22 00:50:56;;;;;;;6.53;0.93;;;12.10;99.90;;;;;;4914743;29;20028;-82
2023/03/22 00:53:22;;;;;;;8.57;0.90;;;12.10;99.90;;;;;;4922894;29;20036;-82
2023/03/22 00:55:47;;;;;;;9.95;1.20;;;12.10;99.90;;;;;;4922677;29;20054;-82
2023/03/22 00:58:13;;;;;;;6.53;1.05;;;12.10;99.90;;;;;;4918147;29;20111;-79
2023/03/22 01:00:39;;;;;;;8.93;1.02;;;12.10;99.90;;;;;;4908821;29;20043;-80
2023/03/22 01:03:05;;;;;;;7.50;1.40;;;12.10;99.90;;;;;;4917889;29;20482;-81
2023/03/22 01:05:32;;;;;;;7.72;1.02;;;12.10;99.90;;;;;;4921941;29;20436;-81
2023/03/22 01:08:07;;;;;;;3.00;0.63;;;12.20;99.90;;;;;;4924131;29;20036;-81
2023/03/22 01:10:34;;;;;;;10.13;1.00;;;12.10;99.90;;;;;;4923911;29;20047;-81
2023/03/22 01:12:59;;;;;;;8.10;0.90;;;12.20;99.90;;;;;;4919308;29;20032;-81
2023/03/22 01:15:25;;;;;;;8.13;1.10;;;12.20;99.90;;;;;;4924030;29;20099;-79
2023/03/22 01:17:51;;;;;;;6.40;0.85;;;12.10;99.90;;;;;;4922547;29;20079;-78
2023/03/22 01:20:16;;;;;;;4.70;0.82;;;12.10;99.90;;;;;;4912742;29;20029;-81
2023/03/22 01:22:42;;;;;;;7.32;1.00;;;12.10;99.90;;;;;;4923142;29;20032;-80
2023/03/22 01:25:08;;;;;;;7.95;1.10;;;12.10;99.90;;;;;;4907153;29;20410;-79
2023/03/22 01:27:34;;;;;;;9.45;0.93;;;12.10;99.90;;;;;;4910743;29;20454;-79
2023/03/22 01:30:00;;;;;;;6.72;0.90;;;12.10;99.90;;;;;;4913598;29;20032;-80
2023/03/22 01:32:25;;;;;;;11.18;1.58;;;12.10;99.90;;;;;;4919307;29;20592;-80
2023/03/22 01:34:51;;;;;;;5.93;1.10;;;12.10;99.90;;;;;;4923753;29;20052;-80
2023/03/22 01:37:17;;;;;;;5.88;1.17;;;12.20;99.90;;;;;;4923638;29;20370;-80
2023/03/22 01:39:43;;;;;;;5.88;1.00;;;12.10;99.90;;;;;;4920702;29;20045;-79
2023/03/22 01:42:13;;;;;;;7.85;1.20;;;12.10;99.90;;;;;;4921874;29;22281;-81
2023/03/22 01:44:43;;;;;;;10.55;1.30;;;12.20;99.90;;;;;;4922272;29;20488;-81
2023/03/22 01:47:10;;;;;;;9.90;1.10;;;12.10;99.90;;;;;;4915788;29;20061;-80
2023/03/22 01:49:36;;;;;;;9.50;1.08;;;12.20;99.90;;;;;;4934888;29;20040;-82
2023/03/22 01:52:07;;;;;;;5.95;1.10;;;12.10;99.90;;;;;;4923121;29;20054;-83
2023/03/22 01:54:50;;;;;;;5.28;1.00;;;12.20;99.90;;;;;;4920485;29;20036;-84
2023/03/22 01:57:17;;;;;;;8.05;0.93;;;12.10;99.90;;;;;;4910356;29;20099;-82
2023/03/22 01:59:45;;;;;;;7.38;0.98;;;12.20;99.90;;;;;;4916621;29;20032;-84
2023/03/22 02:02:13;;;;;;;4.93;0.90;;;12.20;99.90;;;;;;4915104;29;20044;-84
2023/03/22 02:04:40;;;;;;;4.95;0.90;;;12.20;99.90;;;;;;4914344;29;20042;-84
2023/03/22 02:07:14;;;;;;;7.97;1.20;;;12.20;99.90;;;;;;4917780;29;20032;-83
2023/03/22 02:09:41;;;;;;;9.05;0.95;;;12.20;99.90;;;;;;4922954;29;20039;-83
2023/03/22 02:12:39;;;;;;;10.18;1.33;;;12.20;99.90;;;;;;4918900;29;20021;-82
2023/03/22 02:15:26;;;;;;;7.15;1.00;;;12.20;99.90;;;;;;4910296;29;20576;-83
2023/03/22 02:18:25;;;;;;;4.97;0.70;;;12.20;99.90;;;;;;4922883;29;20035;-83
2023/03/22 02:21:18;;;;;;;7.63;1.05;;;12.20;99.90;;;;;;4923210;29;20025;-80
2023/03/22 02:24:02;;;;;;;8.02;1.10;;;12.10;99.90;;;;;;4922556;29;20099;-81
2023/03/22 02:26:40;;;;;;;5.35;0.80;;;12.10;99.90;;;;;;4919328;29;20056;-81
2023/03/22 02:29:07;;;;;;;9.15;1.20;;;12.10;99.90;;;;;;4915725;29;20017;-81
2023/03/22 02:32:12;;;;;;;4.85;1.00;;;12.10;99.90;;;;;;4922687;29;20060;-81
2023/03/22 02:34:49;;;;;;;7.97;0.90;;;12.10;99.90;;;;;;4917167;29;20032;-80
2023/03/22 02:37:37;;;;;;;8.02;1.13;;;12.10;99.90;;;;;;4922678;29;20028;-83
2023/03/22 02:40:18;;;;;;;10.55;1.05;;;12.10;99.90;;;;;;4914236;29;20028;-82
2023/03/22 02:43:05;;;;;;;8.05;1.00;;;12.10;99.90;;;;;;4917203;29;20060;-82
2023/03/22 02:45:33;;;;;;;8.85;1.17;;;12.10;99.90;;;;;;4919491;29;20063;-80
2023/03/22 02:48:31;;;;;;;8.25;0.82;;;12.10;99.90;;;;;;4917778;29;20139;-80
2023/03/22 02:51:09;;;;;;;10.00;1.05;;;12.10;99.90;;;;;;4925727;29;20095;-80
2023/03/22 02:54:07;;;;;;;4.93;0.90;;;12.10;99.90;;;;;;4920398;29;20063;-81
2023/03/22 02:56:38;;;;;;;10.25;1.05;;;12.10;99.90;;;;;;4911771;29;20067;-80
2023/03/22 02:59:06;;;;;;;4.72;0.82;;;12.10;99.90;;;;;;4911674;29;20032;-81
2023/03/22 03:01:39;;;;;;;9.00;0.95;;;12.20;99.90;;;;;;4921702;29;20032;-80
2023/03/22 03:04:09;;;;;;;5.75;0.68;;;12.10;99.90;;;;;;4922046;29;20087;-80
2023/03/22 03:06:39;;;;;;;9.38;0.90;;;12.20;99.90;;;;;;4918938;29;20059;-79
2023/03/22 03:09:05;;;;;;;6.10;1.10;;;12.20;99.90;;;;;;4919008;29;20052;-80
2023/03/22 03:11:32;;;;;;;5.13;0.82;;;12.20;99.90;;;;;;4913515;29;20036;-79
2023/03/22 03:13:58;;;;;;;6.78;0.93;;;12.20;99.90;;;;;;4921738;29;20032;-79
2023/03/22 03:16:28;;;;;;;10.68;1.30;;;12.20;99.90;;;;;;4916184;29;20397;-78
2023/03/22 03:19:19;;;;;;;5.78;0.90;;;12.20;99.90;;;;;;4919785;29;20028;-81
2023/03/22 03:22:14;;;;;;;6.47;1.08;;;12.20;99.90;;;;;;4912661;29;20016;-81
2023/03/22 03:25:08;;;;;;;6.50;0.85;;;12.20;99.90;;;;;;4917255;29;20028;-82
2023/03/22 03:27:45;;;;;;;7.15;0.90;;;12.20;99.90;;;;;;4918203;29;20031;-83
2023/03/22 03:30:20;;;;;;;10.27;0.93;;;12.20;99.90;;;;;;4919879;29;20118;-84
2023/03/22 03:32:58;;;;;;;6.60;0.82;;;12.20;99.90;;;;;;4920396;29;20489;-85
2023/03/22 03:35:32;;;;;;;5.15;1.00;;;12.20;99.90;;;;;;4913767;29;20029;-85
2023/03/22 03:38:22;;;;;;;7.22;0.90;;;12.20;99.90;;;;;;4914979;29;20115;-85
2023/03/22 03:40:53;;;;;;;6.47;0.98;;;12.20;99.90;;;;;;4914580;29;20031;-85
2023/03/22 03:43:20;;;;;;;7.18;0.98;;;12.20;99.90;;;;;;4921135;29;20094;-83
2023/03/22 03:45:46;;;;;;;4.47;0.80;;;12.20;99.90;;;;;;4921341;29;20490;-85
2023/03/22 03:48:20;;;;;;;5.60;0.85;;;12.20;99.90;;;;;;4914891;29;20075;-85
2023/03/22 03:50:49;;;;;;;5.95;0.82;;;12.20;99.90;;;;;;4921000;29;20032;-84
2023/03/22 03:53:14;;;;;;;9.93;1.00;;;12.20;99.90;;;;;;4916947;29;20043;-83
2023/03/22 03:55:40;;;;;;;7.15;0.80;;;12.20;99.90;;;;;;4917211;29;20036;-85
2023/03/22 03:58:08;;;;;;;8.13;0.82;;;12.20;99.90;;;;;;4919438;29;20405;-85
2023/03/22 04:00:34;;;;;;;7.35;1.10;;;12.20;99.90;;;;;;4908909;29;20088;-84
2023/03/22 04:03:02;;;;;;;7.20;1.15;;;12.20;99.90;;;;;;4905373;29;20134;-85
2023/03/22 04:05:28;;;;;;;7.50;1.00;;;12.20;99.90;;;;;;4901501;29;20056;-85
2023/03/22 04:07:53;;;;;;;7.22;1.02;;;12.20;99.90;;;;;;4913305;29;20122;-85
2023/03/22 04:10:19;;;;;;;7.43;1.30;;;12.20;99.90;;;;;;4920772;29;20035;-85
2023/03/22 04:12:45;;;;;;;7.97;0.85;;;12.20;99.90;;;;;;4919248;29;20512;-84
2023/03/22 04:15:11;;;;;;;6.72;0.90;;;12.20;99.90;;;;;;4912484;29;20032;-84
2023/03/22 04:17:38;;;;;;;9.18;1.27;;;12.20;99.90;;;;;;4902434;29;20029;-84
2023/03/22 04:20:05;;;;;;;8.38;0.90;;;12.30;99.90;;;;;;4903839;29;20024;-84
2023/03/22 04:22:33;;;;;;;5.68;0.90;;;12.20;99.90;;;;;;4910972;29;20082;-80
2023/03/22 04:25:00;;;;;;;6.28;0.80;;;12.30;99.90;;;;;;4919085;29;20416;-80
2023/03/22 04:27:26;;;;;;;8.50;0.95;;;12.30;99.90;;;;;;4906206;29;20028;-81
2023/03/22 04:29:53;;;;;;;5.93;0.90;;;12.30;99.90;;;;;;4908039;29;20029;-80
2023/03/22 04:32:21;;;;;;;8.27;1.10;;;12.30;99.90;;;;;;4902403;29;20115;-82
2023/03/22 04:34:51;;;;;;;7.97;1.27;;;12.30;99.90;;;;;;4909908;29;20025;-83
2023/03/22 04:37:18;;;;;;;7.47;0.95;;;12.30;99.90;;;;;;4919184;29;20024;-82
2023/03/22 04:39:44;;;;;;;5.22;1.02;;;12.30;99.90;;;;;;4919773;29;20037;-81
2023/03/22 04:42:11;;;;;;;7.22;1.20;;;12.30;99.90;;;;;;4919166;29;20032;-81
2023/03/22 04:44:36;;;;;;;8.93;0.98;;;12.30;99.90;;;;;;4917441;29;20032;-82
2023/03/22 04:47:02;;;;;;;4.93;1.13;;;12.30;99.90;;;;;;4915891;29;20048;-81
2023/03/22 04:49:28;;;;;;;8.18;1.10;;;12.40;99.90;;;;;;4915356;29;20457;-81
2023/03/22 04:51:55;;;;;;;7.78;1.20;;;12.40;99.90;;;;;;4920331;29;20079;-81
2023/03/22 04:54:21;;;;;;;8.30;1.30;;;12.30;99.90;;;;;;4917859;29;20035;-81
2023/03/22 04:56:47;;;;;;;8.85;1.33;;;12.40;99.90;;;;;;4916920;29;20021;-80
2023/03/22 04:59:13;;;;;;;10.80;1.05;;;12.40;99.90;;;;;;4918629;29;20401;-81
2023/03/22 05:01:39;;;;;;;6.03;1.30;;;12.40;99.90;;;;;;4912623;29;20080;-81
2023/03/22 05:04:05;;;;;;;7.82;0.95;;;12.40;99.90;;;;;;4919316;29;20042;-81
2023/03/22 05:06:34;;;;;;;7.35;1.25;;;12.40;99.90;;;;;;4911469;29;20064;-81
2023/03/22 05:09:00;;;;;;;8.48;1.30;;;12.40;99.90;;;;;;4920346;29;20119;-81
2023/03/22 05:11:26;;;;;;;8.43;0.95;;;12.40;99.90;;;;;;4920054;29;20059;-81
2023/03/22 05:13:56;;;;;;;9.05;1.10;;;12.40;99.90;;;;;;4916841;29;20024;-81
2023/03/22 05:16:23;;;;;;;8.80;1.08;;;12.30;99.90;;;;;;4920544;29;20029;-82
2023/03/22 05:18:53;;;;;;;8.77;1.20;;;12.30;99.90;;;;;;4913561;29;20114;-81
2023/03/22 05:21:26;;;;;;;8.50;1.30;;;12.40;99.90;;;;;;4908014;29;20016;-81
2023/03/22 05:23:54;;;;;;;10.20;1.42;;;12.30;99.90;;;;;;4920355;29;20020;-81
2023/03/22 05:26:23;;;;;;;11.00;1.13;;;12.30;99.90;;;;;;4913071;29;20103;-79
2023/03/22 05:28:58;;;;;;;8.52;1.00;;;12.30;99.90;;;;;;4912281;29;20039;-80
2023/03/22 05:31:24;;;;;;;9.35;0.90;;;12.30;99.90;;;;;;4918602;29;20031;-80
2023/03/22 05:33:51;;;;;;;6.68;1.25;;;12.30;99.90;;;;;;4918898;29;20036;-80
2023/03/22 05:36:18;;;;;;;7.18;1.15;;;12.30;99.90;;;;;;4908307;29;20024;-80
2023/03/22 05:38:44;;;;;;;7.85;0.90;;;12.30;99.90;;;;;;4921783;29;20025;-80
2023/03/22 05:41:11;;;;;;;6.65;1.27;;;12.30;99.90;;;;;;4921242;29;20047;-79
2023/03/22 05:43:37;;;;;;;8.48;1.05;;;12.30;99.90;;;;;;4923113;29;20032;-80
2023/03/22 05:46:07;;;;;;;9.68;0.93;;;12.30;99.90;;;;;;4918306;29;20035;-80
2023/03/22 05:48:33;;;;;;;8.70;1.10;;;12.30;99.90;;;;;;4920549;29;20052;-79
2023/03/22 05:50:59;;;;;;;9.27;1.30;;;12.30;99.90;;;;;;4920447;29;20032;-80
2023/03/22 05:53:24;;;;;;;5.30;0.93;;;12.30;99.90;;;;;;4921335;29;20042;-80
2023/03/22 05:55:51;;;;;;;7.55;1.05;;;12.40;99.90;;;;;;4921943;29;20497;-79
2023/03/22 05:58:17;;;;;;;6.00;1.05;;;12.40;99.90;;;;;;4922290;29;20047;-80
2023/03/22 06:00:44;;;;;;;6.53;1.05;;;12.30;99.90;;;;;;4921598;29;20481;-81
2023/03/22 06:03:10;;;;;;;6.38;0.90;;;12.40;99.90;;;;;;4921144;29;20036;-81
2023/03/22 06:05:36;;;;;;;11.13;1.23;;;12.30;99.90;;;;;;4920259;29;20064;-80
2023/03/22 06:08:02;;;;;;;5.97;0.95;;;12.40;99.90;;;;;;4921222;29;20036;-82
2023/03/22 06:10:28;;;;;;;9.25;1.02;;;12.40;99.90;;;;;;4921892;29;20024;-80
2023/03/22 06:12:54;;;;;;;9.38;1.20;;;12.40;99.90;;;;;;4915268;29;20453;-80
2023/03/22 06:15:20;;;;;;;8.82;1.45;;;12.40;99.90;;;;;;4922691;29;20075;-79
2023/03/22 06:17:46;;;;;;;7.13;0.93;;;12.40;99.90;;;;;;4921705;29;20467;-80
2023/03/22 06:20:13;;;;;;;4.40;0.75;;;12.40;99.90;;;;;;4916579;29;20059;-79
2023/03/22 06:22:39;;;;;;;8.63;1.02;;;12.40;99.90;;;;;;4934425;29;20036;-80
2023/03/22 06:25:06;;;;;;;6.47;1.13;;;12.40;99.90;;;;;;4919143;29;20489;-80
2023/03/22 06:27:33;;;;;;;5.38;0.80;;;12.30;99.90;;;;;;4922227;29;20061;-80
2023/03/22 06:29:59;;;;;;;5.18;0.75;;;12.40;99.90;;;;;;4922734;29;20079;-79
2023/03/22 06:32:25;;;;;;;8.05;1.10;;;12.30;99.90;;;;;;4913399;29;20096;-80
2023/03/22 06:34:55;;;;;;;4.97;1.08;;;12.30;99.90;;;;;;4915343;29;20111;-81
2023/03/22 06:37:20;;;;;;;5.38;1.00;;;12.30;99.90;;;;;;4912604;29;20032;-81
2023/03/22 06:39:46;;;;;;;4.70;0.70;;;12.30;99.90;;;;;;4920850;29;20052;-82
2023/03/22 06:42:12;;;;;;;8.05;1.00;;;12.30;99.90;;;;;;4922270;29;20484;-81
2023/03/22 06:44:41;;;;;;;5.70;0.80;;;12.30;99.90;;;;;;4919859;29;21643;-83
2023/03/22 06:47:07;;;;;;;6.68;0.70;;;12.30;99.90;;;;;;4905871;29;20054;-81
2023/03/22 06:49:33;;;;;;;8.70;1.23;;;12.30;99.90;;;;;;4921422;29;20016;-82
2023/03/22 06:51:59;;;;;;;6.40;1.13;;;12.30;99.90;;;;;;4922204;29;20088;-80
2023/03/22 06:54:25;;;;;;;3.42;0.85;;;12.30;99.90;;;;;;4904730;29;20024;-80
2023/03/22 06:56:50;;;;;;;5.97;1.10;;;12.30;99.90;;;;;;4921344;29;20397;-82
2023/03/22 06:59:16;;;;;;;4.05;1.00;;;12.30;99.90;;;;;;4921217;29;20052;-81
2023/03/22 07:01:41;;;;;;;5.25;0.88;;;12.30;99.90;;;;;;4922043;29;20370;-83
2023/03/22 07:04:07;;;;;;;6.90;1.05;;;12.30;99.90;;;;;;4921965;29;20446;-83
2023/03/22 07:06:33;;;;;;;5.22;0.93;;;12.30;99.90;;;;;;4919077;29;20048;-82
2023/03/22 07:08:58;;;;;;;5.68;0.98;;;12.30;99.90;;;;;;4913039;29;20028;-77
2023/03/22 07:11:25;;;;;;;5.68;1.00;;;12.40;99.90;;;;;;4912722;29;20083;-78
2023/03/22 07:13:52;;;;;;;4.93;0.88;;;12.40;99.90;;;;;;4910077;29;20405;-79
2023/03/22 07:16:19;;;;;;;4.15;0.80;;;12.40;99.90;;;;;;4921418;29;20028;-80
2023/03/22 07:18:44;;;;;;;5.13;0.68;;;12.40;99.90;;;;;;4916171;29;20561;-80
2023/03/22 07:21:10;;;;;;;4.30;0.82;;;12.50;99.90;;;;;;4902627;29;20032;-79
2023/03/22 07:23:35;;;;;;;3.92;0.90;;;12.50;99.90;;;;;;4901880;29;20115;-82
2023/03/22 07:26:01;;;;;;;3.78;0.75;;;12.50;99.90;;;;;;4915241;29;20066;-80
2023/03/22 07:28:27;;;;;;;3.42;0.85;;;12.50;99.90;;;;;;4916317;29;20477;-80
2023/03/22 07:31:10;;;;;;;4.70;1.10;;;12.50;99.90;;;;;;4908105;29;20032;-81
2023/03/22 07:33:37;;;;;;;5.32;0.80;;;12.60;99.90;;;;;;4921095;29;20188;-80
2023/03/22 07:36:03;;;;;;;3.97;0.70;;;12.60;99.90;;;;;;4920949;29;20032;-79
2023/03/22 07:38:29;;;;;;;2.95;0.65;;;12.60;99.90;;;;;;4920854;29;20052;-79
2023/03/22 07:40:55;;;;;;;3.90;0.80;;;12.60;99.90;;;;;;4918881;29;20040;-82
2023/03/22 07:43:21;;;;;;;3.22;0.80;;;12.60;99.90;;;;;;4917545;29;20060;-79
2023/03/22 07:45:51;;;;;;;3.03;0.80;;;12.60;99.90;;;;;;4921029;29;20028;-79
2023/03/22 07:48:18;;;;;;;4.75;1.10;;;12.60;99.90;;;;;;4912092;29;20044;-80
2023/03/22 07:50:44;;;;;;;4.53;0.60;;;12.60;99.90;;;;;;4920153;29;20042;-78
2023/03/22 07:53:11;;;;;;;2.05;0.68;;;12.60;99.90;;;;;;4920893;29;20099;-80
2023/03/22 07:55:37;;;;;;;4.25;0.80;;;12.60;99.90;;;;;;4920525;29;20028;-80
2023/03/22 07:58:04;;;;;;;3.00;0.82;;;12.60;99.90;;;;;;4920228;29;20028;-80
2023/03/22 08:00:30;;;;;;;6.43;0.90;;;12.70;99.90;;;;;;4930732;29;20032;-78
2023/03/22 08:02:56;;;;;;;6.35;1.00;;;12.70;99.90;;;;;;4918569;29;20115;-79
2023/03/22 08:05:21;;;;;;;5.00;0.80;;;12.70;99.90;;;;;;4920896;29;20056;-80
2023/03/22 08:07:48;;;;;;;5.18;0.80;;;12.70;99.90;;;;;;4920857;29;20028;-79
2023/03/22 08:10:14;;;;;;;5.03;1.15;;;12.70;99.90;;;;;;4920790;29;20503;-80
2023/03/22 08:12:40;;;;;;;3.50;0.82;;;12.70;99.90;;;;;;4920833;29;20028;-79
2023/03/22 08:15:07;;;;;;;4.93;0.80;;;12.70;99.90;;;;;;4921019;29;20853;-80
2023/03/22 08:17:33;;;;;;;4.38;0.70;;;12.70;99.90;;;;;;4920979;29;20036;-80
2023/03/22 08:19:59;;;;;;;4.57;1.02;;;12.80;99.90;;;;;;4919488;29;20036;-81
2023/03/22 08:22:28;;;;;;;4.22;0.70;;;12.80;99.90;;;;;;4919048;29;20036;-80
2023/03/22 08:24:55;;;;;;;4.97;1.10;;;12.90;99.90;;;;;;4918900;29;20031;-80
2023/03/22 08:27:20;;;;;;;5.50;0.93;;;12.90;99.90;;;;;;4918346;29;20038;-80
2023/03/22 08:29:47;;;;;;;5.28;1.02;;;13.00;99.90;;;;;;4909995;29;20032;-80
2023/03/22 08:32:13;;;;;;;5.07;0.98;;;13.00;99.90;;;;;;4900748;29;20029;-80
2023/03/22 08:34:40;;;;;;;3.42;0.90;;;13.10;99.90;;;;;;4902743;29;20028;-80
2023/03/22 08:37:07;;;;;;;4.50;0.70;;;13.10;99.90;;;;;;4919104;29;20039;-80
2023/03/22 08:39:33;;;;;;;4.78;1.00;;;13.20;99.90;;;;;;4917626;29;20056;-80
2023/03/22 08:41:59;;;;;;;5.00;1.00;;;13.20;99.90;;;;;;4906889;29;20035;-81
2023/03/22 08:44:25;;;;;;;6.00;0.93;;;13.20;99.90;;;;;;4909527;29;20103;-80
2023/03/22 08:46:52;;;;;;;8.55;1.10;;;13.30;99.90;;;;;;4901740;29;20044;-79
2023/03/22 08:49:17;;;;;;;5.35;1.10;;;13.30;99.90;;;;;;4914807;29;20441;-80
2023/03/22 08:51:43;;;;;;;7.43;1.20;;;13.30;99.90;;;;;;4920625;29;20083;-79
2023/03/22 08:54:09;;;;;;;3.92;0.77;;;13.30;99.90;;;;;;4920295;29;20036;-79
2023/03/22 08:56:36;;;;;;;8.48;1.45;;;13.30;99.90;;;;;;4919030;29;20028;-79
2023/03/22 08:59:07;;;;;;;6.90;1.00;;;13.30;99.90;;;;;;4919630;29;20386;-79
2023/03/22 09:01:34;;;;;;;5.32;1.00;;;13.30;99.90;;;;;;4917296;29;20021;-75
2023/03/22 09:04:01;;;;;;;6.53;1.10;;;13.40;99.90;;;;;;4913350;29;20024;-76
2023/03/22 09:06:27;;;;;;;8.00;1.10;;;13.30;99.90;;;;;;4901775;29;20052;-75
2023/03/22 09:08:53;;;;;;;6.07;1.30;;;13.40;99.90;;;;;;4907814;29;20084;-76
2023/03/22 09:11:19;;;;;;;6.45;1.05;;;13.40;99.90;;;;;;4917974;29;20024;-77
2023/03/22 09:13:46;;;;;;;5.63;1.55;;;13.50;99.90;;;;;;4921702;29;20024;-77
2023/03/22 09:16:12;;;;;;;4.55;1.10;;;13.50;99.90;;;;;;4919559;29;20020;-77
2023/03/22 09:18:39;;;;;;;7.05;1.50;;;13.50;99.90;;;;;;4920750;29;20032;-76
2023/03/22 09:21:08;;;;;;;5.03;1.20;;;13.60;99.90;;;;;;4920275;29;20021;-77
2023/03/22 09:23:35;;;;;;;7.25;1.30;;;13.60;99.90;;;;;;4921648;29;20390;-69
2023/03/22 09:26:03;;;;;;;5.38;0.98;;;13.60;99.90;;;;;;4912138;29;20024;-70
2023/03/22 09:28:29;;;;;;;7.35;1.23;;;13.60;99.90;;;;;;4922562;29;20032;-69
2023/03/22 09:31:06;;;;;;;5.20;0.95;;;13.60;99.90;;;;;;4911997;29;20038;-70
2023/03/22 09:33:36;;;;;;;6.65;1.10;;;13.60;99.90;;;;;;4922280;29;20050;-71
2023/03/22 09:36:03;;;;;;;6.88;1.10;;;13.60;99.90;;;;;;4919540;29;20357;-73
2023/03/22 09:38:31;;;;;;;7.30;1.10;;;13.50;99.90;;;;;;4923519;29;20039;-77
2023/03/22 09:41:04;;;;;;;5.75;1.23;;;13.50;99.90;;;;;;4913405;29;20423;-75
2023/03/22 09:43:38;;;;;;;7.75;1.27;;;13.40;99.90;;;;;;4916947;29;20047;-75
2023/03/22 09:46:09;;;;;;;7.38;1.20;;;13.40;99.90;;;;;;4920337;29;20024;-76
2023/03/22 09:48:41;;;;;;;6.35;1.20;;;13.40;99.90;;;;;;4915741;29;20052;-73
2023/03/22 09:51:33;;;;;;;7.72;1.17;;;13.40;99.90;;;;;;4922756;29;20043;-75
2023/03/22 09:53:59;;;;;;;4.60;1.10;;;13.40;99.90;;;;;;4916391;29;20075;-75
2023/03/22 09:56:30;;;;;;;6.88;1.20;;;13.40;99.90;;;;;;4923347;29;20445;-75
2023/03/22 09:59:20;;;;;;;5.15;1.00;;;13.30;99.90;;;;;;4922055;29;20031;-75
2023/03/22 10:01:57;;;;;;;5.80;0.95;;;13.30;99.90;;;;;;4922528;29;20136;-76
2023/03/22 10:04:40;;;;;;;6.40;1.10;;;13.20;99.90;;;;;;4919195;29;20024;-73
2023/03/22 10:07:45;;;;;;;5.53;1.00;;;13.20;99.90;;;;;;4922247;29;20047;-75
2023/03/22 10:10:17;;;;;;;5.45;0.95;;;13.10;99.90;;;;;;4920717;29;20031;-75
2023/03/22 10:12:52;;;;;;;4.55;1.38;;;13.00;99.90;;;;;;4911004;29;20370;-75
2023/03/22 10:15:25;;;;;;;7.15;1.10;;;12.90;99.90;;;;;;4904951;29;20032;-76
2023/03/22 10:17:54;;;;;;;6.82;1.13;;;12.90;99.90;;;;;;4918851;29;20024;-77
2023/03/22 10:20:26;;;;;;;5.03;0.90;;;12.90;99.90;;;;;;4913984;29;20040;-77
2023/03/22 10:22:53;;;;;;;7.53;1.23;;;12.90;99.90;;;;;;4920918;29;20035;-76
2023/03/22 10:25:23;;;;;;;6.07;1.15;;;12.90;99.90;;;;;;4915958;29;20494;-77
2023/03/22 10:27:50;;;;;;;6.70;1.00;;;12.90;99.90;;;;;;4911464;29;20051;-74
2023/03/22 10:30:27;;;;;;;4.72;0.95;;;13.00;99.90;;;;;;4908502;29;20036;-70
2023/03/22 10:33:08;;;;;;;7.88;1.08;;;13.00;99.90;;;;;;4920055;29;20111;-71
2023/03/22 10:35:35;;;;;;;3.67;1.00;;;12.90;99.90;;;;;;4922646;29;20076;-69
2023/03/22 10:38:05;;;;;;;5.35;1.10;;;13.00;99.90;;;;;;4909859;29;20037;-70
2023/03/22 10:40:34;;;;;;;5.20;0.85;;;13.00;99.90;;;;;;4915006;29;20020;-70
2023/03/22 10:43:24;;;;;;;3.53;0.90;;;13.00;99.90;;;;;;4916161;29;20028;-71
2023/03/22 10:45:52;;;;;;;4.32;0.90;;;13.00;99.90;;;;;;4911841;29;20029;-69
2023/03/22 10:48:31;;;;;;;2.80;0.95;;;13.10;99.90;;;;;;4916655;29;20503;-70
2023/03/22 10:50:58;;;;;;;2.42;0.80;;;13.00;99.90;;;;;;4918355;29;20026;-70
2023/03/22 10:53:37;;;;;;;2.45;0.77;;;13.10;99.90;;;;;;4920840;29;20130;-70
2023/03/22 10:56:04;;;;;;;2.38;0.70;;;13.10;99.90;;;;;;4921904;29;20019;-70
2023/03/22 10:58:33;;;;;;;1.90;0.65;;;13.10;99.90;;;;;;4916592;29;20092;-71
2023/03/22 11:01:04;;;;;;;4.07;0.82;;;13.10;99.90;;;;;;4914076;29;20025;-70
2023/03/22 11:03:35;;;;;;;4.47;1.00;;;13.00;99.90;;;;;;4908576;29;20517;-70
2023/03/22 11:06:12;;;;;;;4.22;0.65;;;13.00;99.90;;;;;;4916357;29;20429;-72
2023/03/22 11:08:52;;;;;;;3.70;0.77;;;13.00;99.90;;;;;;4921696;29;20068;-71
2023/03/22 11:11:24;;;;;;;1.95;0.68;;;12.90;99.90;;;;;;4920711;29;20036;-72
2023/03/22 11:14:05;;;;;;;1.10;0.60;;;12.90;99.90;;;;;;4921653;29;20036;-70
2023/03/22 11:16:39;;;;;;;2.55;0.80;;;13.00;99.90;;;;;;4916473;29;20028;-71
2023/03/22 11:19:05;;;;;;;1.92;0.93;;;13.00;99.90;;;;;;4915366;29;20021;-71
2023/03/22 11:21:32;;;;;;;3.00;1.10;;;13.10;99.90;;;;;;4902865;29;20569;-70
2023/03/22 11:24:04;;;;;;;3.28;0.70;;;13.10;99.90;;;;;;4901227;29;20475;-71
2023/03/22 11:26:33;;;;;;;2.38;0.65;;;13.00;99.90;;;;;;4912126;29;20032;-70
2023/03/22 11:29:13;;;;;;;4.13;1.05;;;13.10;99.90;;;;;;4919700;29;20031;-70
2023/03/22 11:31:58;;;;;;;2.17;0.80;;;13.00;99.90;;;;;;4919682;29;20032;-68
2023/03/22 11:34:29;;;;;;;2.72;0.88;;;13.00;99.90;;;;;;4915767;29;20033;-71
2023/03/22 11:36:58;;;;;;;3.70;0.90;;;13.00;99.90;;;;;;4916271;29;20039;-71
2023/03/22 11:39:27;;;;;;;4.28;1.10;;;13.00;99.90;;;;;;4915836;29;20135;-72
2023/03/22 11:42:00;;;;;;;3.85;0.90;;;13.00;99.90;;;;;;4919485;29;20028;-70
2023/03/22 11:44:30;;;;;;;3.50;1.15;;;13.10;99.90;;;;;;4914164;29;20028;-69
2023/03/22 11:46:59;;;;;;;3.22;1.00;;;13.10;99.90;;;;;;4918141;29;20043;-70
2023/03/22 11:49:44;;;;;;;3.03;1.00;;;13.10;99.90;;;;;;4917907;29;20032;-70
2023/03/22 11:52:15;;;;;;;2.75;1.08;;;13.10;99.90;;;;;;4921395;29;20481;-67
2023/03/22 11:54:44;;;;;;;3.25;1.10;;;13.10;99.90;;;;;;4918868;29;20497;-68
2023/03/22 11:57:15;;;;;;;2.60;1.20;;;13.00;99.90;;;;;;4917648;29;20044;-69
2023/03/22 12:00:06;;;;;;;3.83;1.00;;;13.10;99.90;;;;;;4915939;29;20024;-68
2023/03/22 12:02:37;;;;;;;3.08;1.10;;;13.10;99.90;;;;;;4915282;29;20127;-68
2023/03/22 12:05:13;;;;;;;4.43;1.05;;;13.10;99.90;;;;;;4912231;29;20031;-69
2023/03/22 12:07:40;;;;;;;3.47;0.88;;;13.20;99.90;;;;;;4919178;29;20043;-68
2023/03/22 12:10:12;;;;;;;5.53;1.33;;;13.20;99.90;;;;;;4914549;29;20094;-73
2023/03/22 12:12:48;;;;;;;5.75;1.40;;;13.20;99.90;;;;;;4928283;29;20090;-70
2023/03/22 12:15:26;;;;;;;3.58;1.33;;;13.20;99.90;;;;;;4916862;29;20031;-70
2023/03/22 12:17:59;;;;;;;2.88;1.25;;;13.20;99.90;;;;;;4911701;29;20053;-70
2023/03/22 12:20:35;;;;;;;5.00;1.10;;;13.30;99.90;;;;;;4915922;29;20039;-71
2023/03/22 12:23:01;;;;;;;4.32;1.30;;;13.30;99.90;;;;;;4913391;29;20111;-68
2023/03/22 12:25:31;;;;;;;3.95;1.20;;;13.30;99.90;;;;;;4915096;29;20032;-67
2023/03/22 12:28:06;;;;;;;2.75;1.08;;;13.30;99.90;;;;;;4907700;29;20076;-72
2023/03/22 12:30:39;;;;;;;5.82;1.40;;;13.40;99.90;;;;;;4928532;29;20059;-71
2023/03/22 12:33:08;;;;;;;;;;;13.40;99.90;;;;;;4919663;29;20516;-73
2023/03/22 12:35:37;;;;;;;5.80;1.17;;;13.40;99.90;;;;;;4902684;29;19915;-73
2023/03/22 12:38:17;;;;;;;5.22;1.13;;;13.50;99.90;;;;;;4917907;29;20044;-71
2023/03/22 12:40:43;;;;;;;8.75;1.25;;;13.50;99.90;;;;;;4913635;29;20020;-70
2023/03/22 12:43:27;;;;;;;3.65;1.10;;;13.50;99.90;;;;;;4918812;29;20056;-71
2023/03/22 12:45:57;;;;;;;5.28;1.23;;;13.50;99.90;;;;;;4921272;29;20084;-70
2023/03/22 12:48:41;;;;;;;4.47;1.25;;;13.50;99.90;;;;;;4918906;29;20412;-71
2023/03/22 12:51:10;;;;;;;4.68;1.30;;;13.50;99.90;;;;;;4923628;29;20048;-71
2023/03/22 12:53:49;;;;;;;4.18;1.30;;;13.40;99.90;;;;;;4923756;29;20086;-71
2023/03/22 12:56:19;;;;;;;3.85;1.48;;;13.40;99.90;;;;;;4923788;29;20090;-71
2023/03/22 12:58:51;;;;;;;6.07;1.45;;;13.40;99.90;;;;;;4924360;29;20037;-71
2023/03/22 13:01:19;;;;;;;6.03;1.23;;;13.50;99.90;;;;;;4924475;29;20397;-70